Historique des mesures à Cassis (13260), France
Quotidien Résumé Janvier 15, 2017 Unités:  US    Métrique   Métrique/US
« Précédent (Jour)
Suivant (Jour) »
Quotidien Hebdomadaire Mensuel Annuel Période au choix
  Maximum: Minimum: Moyenne:
Température: 32 °F 36.3 °F 40.8 °F
Point de rosée: 32 °F 17.8 °F 21.2 °F
Humidité: Humidity % 33 % 43 %
Vitesse du vent: WindSpeedKMH mph 0.0 mph 8.5 mph
Rafales: WindSpeedGustKMH mph - -
Vent:- - SW
Pression: 0 in 29.8 in -
Précipitations: 0 in    
Historical Graphs
 
 
Mesures pour : Janvier 15, 2017
Heure Temperature Point de rosée Pression Vent Vitesse du vent Rafales Humidité Pluie (par heure) Conditions
32 °F 32 °F 0 in Calm     Humidity % 0 in SoftwareType W/m2
00:11 38.8 °F 21.2 °F 29.9 in WNW 18.7 mph 18.7 mph 49 % 0 in open2300-1.11 W/m2
01:10 38.3 °F 20.8 °F 29.9 in Calm   9.7 mph 49 % 0 in open2300-1.11 W/m2
02:11 38.5 °F 20.5 °F 29.9 in Calm   3.5 mph 48 % 0 in open2300-1.11 W/m2
03:10 38.5 °F 21.6 °F 29.9 in WNW 15.4 mph 15.4 mph 50 % 0 in open2300-1.11 W/m2
04:11 38.3 °F 22.6 °F 29.9 in Calm   1.4 mph 53 % 0 in open2300-1.11 W/m2
05:10 38.1 °F 22.8 °F 29.9 in NNW 1.1 mph 1.1 mph 54 % 0 in open2300-1.11 W/m2
06:11 37.6 °F 22.8 °F 29.9 in NNW 3.5 mph 3.5 mph 55 % 0 in open2300-1.11 W/m2
07:10 37.2 °F 23.7 °F 29.9 in NNW 4.0 mph 14.8 mph 58 % 0 in open2300-1.11 W/m2
08:11 36.3 °F 23.4 °F 29.8 in NW 7.9 mph 9.7 mph 59 % 0 in open2300-1.11 W/m2
09:10 38.1 °F 21 °F 29.9 in NNW 6.1 mph 16.6 mph 50 % 0 in open2300-1.11 W/m2
10:11 40.1 °F 19.8 °F 29.9 in North 9.3 mph 9.3 mph 44 % 0 in open2300-1.11 W/m2
11:10 42.1 °F 19.9 °F 29.9 in North 8.2 mph 8.2 mph 41 % 0 in open2300-1.11 W/m2
12:11 45.1 °F 19.6 °F 29.9 in NNW 26.2 mph 26.2 mph 36 % 0 in open2300-1.11 W/m2
13:10 46.8 °F 19 °F 29.9 in WNW 27.0 mph 27.0 mph 33 % 0 in open2300-1.11 W/m2
14:11 47.5 °F 20.3 °F 29.9 in North 7.2 mph 17.2 mph 34 % 0 in open2300-1.11 W/m2
15:10 48.4 °F 21 °F 29.9 in NNW 7.6 mph 7.6 mph 34 % 0 in open2300-1.11 W/m2
16:11 46.9 °F 21.9 °F 29.9 in North 7.9 mph 31.7 mph 37 % 0 in open2300-1.11 W/m2
17:10 44.8 °F 20.7 °F 29.9 in NNW 8.2 mph 13.0 mph 38 % 0 in open2300-1.11 W/m2
18:11 42.6 °F 20.5 °F 29.9 in North 7.2 mph 19.1 mph 41 % 0 in open2300-1.11 W/m2
19:10 41.7 °F 20.1 °F 29.9 in WNW 19.1 mph 23.3 mph 42 % 0 in open2300-1.11 W/m2
20:11 41.4 °F 19.4 °F 29.9 in North 6.1 mph 6.1 mph 41 % 0 in open2300-1.11 W/m2
21:10 41 °F 18.5 °F 29.9 in Calm   5.8 mph 40 % 0 in open2300-1.11 W/m2
22:11 40.8 °F 17.8 °F 29.9 in Calm   9.0 mph 39 % 0 in open2300-1.11 W/m2
23:10 40.5 °F 18.5 °F 29.9 in NNW 23.0 mph 23.0 mph 41 % 0 in open2300-1.11 W/m2
Observations météo à CASSIS
WU-History script by Weather Underground - 1 mb